createdAt,value
2019-04-05T00:00:28.533Z,5.90
2019-04-05T00:02:57.242Z,5.90
2019-04-05T00:05:25.853Z,5.80
2019-04-05T00:07:54.408Z,5.80
2019-04-05T00:10:22.953Z,5.80
2019-04-05T00:12:51.497Z,5.80
2019-04-05T00:15:20.122Z,5.70
2019-04-05T00:17:48.805Z,5.70
2019-04-05T00:20:17.401Z,5.70
2019-04-05T00:22:46.103Z,5.80
2019-04-05T00:25:14.730Z,5.70
2019-04-05T00:27:43.447Z,5.60
2019-04-05T00:30:13.918Z,5.60
2019-04-05T00:32:42.533Z,5.50
2019-04-05T00:35:11.541Z,5.70
2019-04-05T00:37:40.073Z,5.80
2019-04-05T00:40:09.575Z,5.80
2019-04-05T00:42:38.161Z,5.80
2019-04-05T00:45:08.719Z,5.70
2019-04-05T00:47:37.322Z,5.80
2019-04-05T00:50:08.740Z,5.80
2019-04-05T00:52:37.415Z,5.70
2019-04-05T00:55:07.607Z,5.80
2019-04-05T00:57:36.313Z,5.80
2019-04-05T01:00:06.742Z,5.80
2019-04-05T01:02:35.330Z,5.80
2019-04-05T01:05:05.498Z,5.80
2019-04-05T01:07:34.133Z,5.80
2019-04-05T01:10:03.189Z,5.80
2019-04-05T01:12:32.195Z,5.80
2019-04-05T01:15:02.235Z,5.80
2019-04-05T01:17:30.836Z,5.70
2019-04-05T01:20:02.526Z,5.70
2019-04-05T01:22:33.672Z,5.70
2019-04-05T01:25:02.852Z,5.80
2019-04-05T01:27:32.242Z,5.80
2019-04-05T01:30:00.934Z,5.80
2019-04-05T01:32:29.616Z,5.90
2019-04-05T01:34:58.398Z,5.80
2019-04-05T01:37:27.117Z,5.90
2019-04-05T01:39:56.144Z,5.80
2019-04-05T01:42:25.134Z,5.80
2019-04-05T01:44:54.637Z,5.70
2019-04-05T01:47:23.269Z,5.70
2019-04-05T01:49:52.002Z,5.80
2019-04-05T01:52:21.760Z,5.90
2019-04-05T01:54:50.322Z,5.90
2019-04-05T01:57:18.904Z,5.80
2019-04-05T01:59:47.506Z,5.80
2019-04-05T02:02:16.205Z,5.80
2019-04-05T02:04:44.805Z,5.60
2019-04-05T02:07:13.429Z,5.60
2019-04-05T02:09:42.042Z,5.60
2019-04-05T02:12:10.663Z,5.70
2019-04-05T02:14:39.257Z,5.70
2019-04-05T02:17:07.953Z,5.70
2019-04-05T02:19:36.570Z,5.80
2019-04-05T02:22:05.270Z,5.80
2019-04-05T02:24:33.966Z,5.70
2019-04-05T02:27:05.381Z,5.70
2019-04-05T02:29:35.593Z,5.70
2019-04-05T02:32:04.265Z,5.70
2019-04-05T02:34:32.905Z,5.70
2019-04-05T02:37:01.670Z,5.70
2019-04-05T02:39:30.354Z,5.70
2019-04-05T02:41:59.147Z,5.80
2019-04-05T02:44:29.107Z,5.80
2019-04-05T02:46:57.874Z,5.90
2019-04-05T02:49:28.677Z,5.90
2019-04-05T02:52:00.122Z,5.80
2019-04-05T02:54:29.910Z,5.80
2019-04-05T02:57:01.160Z,5.80
2019-04-05T02:59:31.466Z,5.70
2019-04-05T03:02:00.734Z,5.60
2019-04-05T03:04:29.831Z,5.80
2019-04-05T03:06:58.707Z,5.70
2019-04-05T03:09:27.919Z,5.80
2019-04-05T03:11:57.794Z,5.90
2019-04-05T03:14:27.625Z,5.90
2019-04-05T03:16:56.509Z,5.80
2019-04-05T03:19:28.142Z,5.90
2019-04-05T03:21:59.846Z,5.90
2019-04-05T03:24:31.684Z,5.80
2019-04-05T03:27:03.961Z,5.90
2019-04-05T03:29:32.859Z,5.80
2019-04-05T03:32:02.037Z,5.80
2019-04-05T03:34:31.413Z,5.80
2019-04-05T03:37:00.773Z,5.90
2019-04-05T03:39:29.565Z,5.90
2019-04-05T03:42:01.381Z,5.80
2019-04-05T03:44:30.221Z,5.80
2019-04-05T03:46:59.208Z,5.80
2019-04-05T03:49:29.601Z,5.80
2019-04-05T03:51:58.246Z,5.80
2019-04-05T03:54:27.014Z,5.70
2019-04-05T03:56:55.764Z,5.60
2019-04-05T03:59:24.307Z,5.70
2019-04-05T04:01:52.988Z,5.70
2019-04-05T04:04:21.629Z,5.80
2019-04-05T04:06:50.316Z,5.80
2019-04-05T04:09:19.128Z,5.90
2019-04-05T04:11:47.818Z,5.80
2019-04-05T04:14:16.621Z,5.90
2019-04-05T04:16:45.562Z,5.80
2019-04-05T04:19:14.560Z,5.80
2019-04-05T04:21:57.872Z,5.90
2019-04-05T04:24:26.877Z,5.90
2019-04-05T04:26:56.100Z,5.90
2019-04-05T04:29:24.785Z,5.80
2019-04-05T04:31:53.815Z,5.80
2019-04-05T04:34:22.501Z,5.80
2019-04-05T04:36:51.177Z,5.80
2019-04-05T04:39:20.679Z,5.80
2019-04-05T04:41:49.955Z,5.60
2019-04-05T04:44:19.269Z,5.70
2019-04-05T04:46:48.648Z,5.70
2019-04-05T04:49:18.290Z,5.70
2019-04-05T04:51:47.451Z,5.70
2019-04-05T04:54:16.097Z,5.70
2019-04-05T04:56:45.188Z,5.90
2019-04-05T04:59:13.921Z,5.80
2019-04-05T05:01:42.522Z,5.80
2019-04-05T05:04:11.341Z,5.80
2019-04-05T05:06:40.017Z,5.80
2019-04-05T05:09:08.701Z,5.70
2019-04-05T05:11:37.472Z,5.70
2019-04-05T05:14:06.570Z,5.70
2019-04-05T05:16:35.353Z,5.70
2019-04-05T05:19:04.113Z,5.60
2019-04-05T05:21:32.911Z,5.60
2019-04-05T05:24:01.908Z,5.60
2019-04-05T05:26:31.073Z,5.60
2019-04-05T05:28:59.740Z,5.60
2019-04-05T05:31:28.542Z,5.60
2019-04-05T05:33:57.319Z,5.60
2019-04-05T05:36:26.110Z,5.70
2019-04-05T05:38:55.087Z,5.60
2019-04-05T05:41:23.794Z,5.60
2019-04-05T05:43:52.395Z,5.70
2019-04-05T05:46:24.025Z,5.70
2019-04-05T05:48:52.656Z,5.80
2019-04-05T05:51:25.580Z,5.80
2019-04-05T05:53:54.226Z,5.70
2019-04-05T05:56:22.781Z,5.70
2019-04-05T05:58:51.476Z,5.80
2019-04-05T06:01:20.163Z,5.80
2019-04-05T06:03:48.830Z,5.90
2019-04-05T06:06:17.430Z,5.90
2019-04-05T06:08:47.161Z,5.90
2019-04-05T06:11:15.685Z,5.90
2019-04-05T06:13:44.299Z,5.80
2019-04-05T06:16:13.064Z,5.70
2019-04-05T06:18:42.086Z,5.70
2019-04-05T06:21:10.617Z,5.60
2019-04-05T06:23:39.253Z,5.50
2019-04-05T06:26:07.785Z,5.60
2019-04-05T06:28:36.420Z,5.60
2019-04-05T06:31:05.123Z,5.70
2019-04-05T06:33:35.806Z,5.80
2019-04-05T06:36:04.038Z,5.60
2019-04-05T06:38:32.794Z,5.50
2019-04-05T06:41:01.609Z,5.50
2019-04-05T06:43:30.168Z,5.40
2019-04-05T06:45:58.859Z,5.50
2019-04-05T06:48:29.273Z,5.60
2019-04-05T06:50:57.756Z,5.50
2019-04-05T06:53:26.373Z,5.60
2019-04-05T06:55:54.992Z,5.60
2019-04-05T06:58:28.977Z,5.60
2019-04-05T07:00:57.418Z,5.60
2019-04-05T07:03:24.069Z,5.60
2019-04-05T07:05:53.107Z,5.70
2019-04-05T07:08:21.718Z,5.60
2019-04-05T07:10:50.288Z,5.60
2019-04-05T07:13:18.782Z,5.70
2019-04-05T07:15:47.342Z,5.70
2019-04-05T07:18:15.897Z,5.60
2019-04-05T07:20:44.439Z,5.60
2019-04-05T07:23:13.061Z,5.60
2019-04-05T07:25:41.901Z,5.60
2019-04-05T07:28:14.958Z,5.60
2019-04-05T07:30:43.463Z,5.60
2019-04-05T07:33:11.997Z,5.50
2019-04-05T07:35:42.084Z,5.60
2019-04-05T07:38:10.637Z,5.70
2019-04-05T07:40:39.278Z,5.80
2019-04-05T07:43:07.737Z,5.80
2019-04-05T07:45:39.113Z,5.80
2019-04-05T07:48:07.689Z,5.80
2019-04-05T07:50:36.246Z,5.70
2019-04-05T07:53:24.121Z,5.70
2019-04-05T07:55:52.605Z,5.80
2019-04-05T07:58:21.143Z,5.90
2019-04-05T08:00:52.646Z,5.90
2019-04-05T08:03:22.105Z,6.00
2019-04-05T08:05:51.833Z,6.10
2019-04-05T08:08:23.463Z,6.10
2019-04-05T08:10:52.386Z,6.10
2019-04-05T08:13:23.134Z,6.20
2019-04-05T08:15:51.769Z,6.30
2019-04-05T08:18:20.374Z,6.50
2019-04-05T08:20:48.961Z,6.60
2019-04-05T08:23:17.515Z,6.40
2019-04-05T08:25:46.157Z,6.30
2019-04-05T08:28:14.762Z,6.30
2019-04-05T08:30:43.314Z,6.40
2019-04-05T08:33:11.847Z,6.50
2019-04-05T08:35:40.425Z,6.50
2019-04-05T08:38:08.977Z,6.60
2019-04-05T08:40:37.670Z,6.50
2019-04-05T08:43:06.196Z,6.50
2019-04-05T08:45:34.731Z,6.60
2019-04-05T08:48:03.358Z,6.80
2019-04-05T08:50:32.032Z,6.70
2019-04-05T08:53:00.493Z,6.90
2019-04-05T08:55:29.234Z,6.90
2019-04-05T08:57:58.091Z,6.80
2019-04-05T09:00:26.831Z,6.50
2019-04-05T09:02:55.575Z,6.50
2019-04-05T09:05:24.327Z,6.60
2019-04-05T09:07:52.908Z,6.70
2019-04-05T09:10:21.510Z,6.70
2019-04-05T09:12:49.992Z,6.80
2019-04-05T09:15:18.555Z,6.90
2019-04-05T09:17:47.281Z,7.00
2019-04-05T09:20:15.971Z,7.00
2019-04-05T09:22:44.542Z,6.90
2019-04-05T09:25:13.197Z,6.90
2019-04-05T09:27:41.757Z,7.00
2019-04-05T09:30:10.682Z,7.10
2019-04-05T09:32:39.209Z,6.90
2019-04-05T09:35:07.920Z,7.10
2019-04-05T09:37:36.478Z,7.30
2019-04-05T09:40:08.293Z,7.10
2019-04-05T09:42:36.927Z,7.10
2019-04-05T09:45:07.516Z,6.70
2019-04-05T09:47:36.104Z,6.60
2019-04-05T09:50:06.782Z,7.10
2019-04-05T09:52:36.553Z,7.70
2019-04-05T09:55:06.613Z,7.80
2019-04-05T09:57:35.220Z,7.80
2019-04-05T10:00:06.915Z,7.50
2019-04-05T10:02:35.603Z,7.30
2019-04-05T10:05:06.266Z,7.30
2019-04-05T10:07:34.866Z,7.40
2019-04-05T10:10:03.422Z,7.20
2019-04-05T10:12:32.061Z,7.30
2019-04-05T10:15:00.592Z,7.30
2019-04-05T10:17:29.187Z,7.50
2019-04-05T10:19:57.711Z,7.50
2019-04-05T10:22:26.284Z,7.60
2019-04-05T10:24:55.082Z,7.70
2019-04-05T10:27:23.641Z,7.80
2019-04-05T10:29:52.182Z,7.90
2019-04-05T10:32:20.893Z,7.60
2019-04-05T10:34:49.405Z,7.40
2019-04-05T10:37:17.901Z,7.50
2019-04-05T10:39:46.505Z,7.70
2019-04-05T10:42:34.165Z,7.40
2019-04-05T10:45:03.188Z,7.50
2019-04-05T10:47:31.883Z,7.70
2019-04-05T10:50:03.244Z,8.10
2019-04-05T10:52:30.553Z,8.30
2019-04-05T10:54:59.132Z,8.30
2019-04-05T10:57:27.677Z,8.20
2019-04-05T10:59:56.156Z,8.10
2019-04-05T11:02:24.762Z,8.00
2019-04-05T11:04:53.324Z,8.00
2019-04-05T11:07:21.872Z,8.00
2019-04-05T11:09:53.244Z,8.20
2019-04-05T11:12:20.760Z,8.50
2019-04-05T11:14:49.392Z,8.50
2019-04-05T11:17:17.962Z,8.60
2019-04-05T11:19:46.669Z,8.60
2019-04-05T11:22:15.333Z,8.50
2019-04-05T11:24:43.958Z,8.40
2019-04-05T11:27:12.703Z,8.30
2019-04-05T11:29:41.360Z,8.40
2019-04-05T11:32:14.796Z,8.50
2019-04-05T11:34:43.515Z,8.80
2019-04-05T11:37:12.201Z,9.20
2019-04-05T11:39:41.004Z,9.30
2019-04-05T11:42:09.695Z,9.30
2019-04-05T11:44:40.983Z,9.10
2019-04-05T11:47:09.684Z,9.40
2019-04-05T11:49:39.751Z,8.90
2019-04-05T11:52:14.015Z,8.60
2019-04-05T11:54:45.638Z,8.90
2019-04-05T11:57:12.854Z,8.80
2019-04-05T11:59:41.550Z,8.80
2019-04-05T12:02:29.707Z,9.00
2019-04-05T12:04:59.288Z,8.90
2019-04-05T12:07:27.877Z,8.80
2019-04-05T12:09:56.412Z,8.80
2019-04-05T12:12:25.650Z,8.80
2019-04-05T12:14:54.383Z,8.70
2019-04-05T12:17:22.939Z,8.60
2019-04-05T12:19:51.601Z,8.70
2019-04-05T12:22:20.302Z,8.70
2019-04-05T12:24:48.922Z,9.20
2019-04-05T12:27:19.566Z,8.80
2019-04-05T12:29:47.912Z,9.00
2019-04-05T12:32:18.805Z,9.20
2019-04-05T12:34:49.449Z,9.70
2019-04-05T12:37:18.183Z,9.30
2019-04-05T12:39:46.858Z,10.10
2019-04-05T12:42:15.434Z,10.40
2019-04-05T12:44:45.126Z,10.20
2019-04-05T12:47:15.770Z,10.10
2019-04-05T12:49:45.469Z,10.30
2019-04-05T12:52:22.749Z,11.10
2019-04-05T12:54:46.088Z,11.60
2019-04-05T12:57:14.798Z,12.00
2019-04-05T12:59:43.378Z,11.60
2019-04-05T13:02:14.041Z,12.00
2019-04-05T13:04:42.239Z,11.30
2019-04-05T13:07:10.845Z,11.10
2019-04-05T13:09:39.477Z,11.30
2019-04-05T13:12:08.117Z,11.10
2019-04-05T13:14:36.672Z,11.30
2019-04-05T13:17:05.380Z,12.70
2019-04-05T13:19:33.997Z,12.70
2019-04-05T13:22:02.955Z,11.20
2019-04-05T13:24:32.106Z,10.40
2019-04-05T13:27:02.046Z,10.10
2019-04-05T13:29:30.758Z,10.20
2019-04-05T13:31:59.410Z,10.00
2019-04-05T13:34:27.968Z,10.00
2019-04-05T13:36:56.569Z,10.00
2019-04-05T13:39:25.203Z,10.30
2019-04-05T13:41:53.789Z,10.20
2019-04-05T13:44:22.329Z,10.30
2019-04-05T13:46:51.065Z,10.00
2019-04-05T13:49:19.550Z,10.40
2019-04-05T13:51:48.188Z,10.30
2019-04-05T13:54:16.720Z,10.20
2019-04-05T13:56:45.201Z,10.10
2019-04-05T13:59:13.925Z,10.00
2019-04-05T14:01:42.626Z,10.10
2019-04-05T14:04:11.166Z,10.00
2019-04-05T14:06:39.857Z,9.70
2019-04-05T14:09:10.476Z,9.70
2019-04-05T14:11:39.450Z,9.60
2019-04-05T14:14:11.825Z,9.50
2019-04-05T14:16:42.586Z,9.50
2019-04-05T14:19:09.299Z,9.50
2019-04-05T14:21:45.892Z,9.80
2019-04-05T14:24:10.403Z,9.90
2019-04-05T14:26:39.105Z,9.90
2019-04-05T14:29:07.582Z,10.00
2019-04-05T14:31:36.186Z,10.30
2019-04-05T14:34:07.945Z,10.20
2019-04-05T14:36:36.528Z,10.20
2019-04-05T14:39:08.204Z,10.00
2019-04-05T14:41:36.826Z,9.90
2019-04-05T14:44:05.511Z,10.10
2019-04-05T14:46:34.256Z,10.00
2019-04-05T14:49:02.966Z,10.00
2019-04-05T14:51:33.438Z,10.00
2019-04-05T14:54:02.457Z,10.00
2019-04-05T14:56:31.069Z,9.80
2019-04-05T14:58:59.842Z,9.80
2019-04-05T15:01:28.553Z,9.90
2019-04-05T15:03:57.191Z,10.00
2019-04-05T15:06:26.748Z,10.10
2019-04-05T15:08:55.349Z,10.20
2019-04-05T15:11:23.985Z,10.00
2019-04-05T15:13:52.513Z,9.80
2019-04-05T15:16:23.288Z,10.00
2019-04-05T15:18:51.356Z,10.30
2019-04-05T15:21:19.905Z,10.10
2019-04-05T15:23:48.640Z,9.90
2019-04-05T15:26:20.415Z,9.90
2019-04-05T15:28:47.505Z,10.00
2019-04-05T15:31:16.193Z,9.90
2019-04-05T15:33:44.926Z,9.80
2019-04-05T15:36:13.557Z,9.80
2019-04-05T15:38:42.271Z,10.00
2019-04-05T15:41:10.877Z,10.00
2019-04-05T15:43:40.174Z,10.20
2019-04-05T15:46:08.800Z,10.10
2019-04-05T15:48:37.365Z,9.90
2019-04-05T15:51:06.123Z,10.00
2019-04-05T15:53:34.767Z,10.00
2019-04-05T15:56:04.232Z,10.20
2019-04-05T15:58:34.086Z,10.20
2019-04-05T16:01:04.868Z,10.20
2019-04-05T16:03:33.524Z,10.10
2019-04-05T16:06:02.089Z,10.10
2019-04-05T16:08:30.669Z,9.90
2019-04-05T16:10:59.409Z,10.00
2019-04-05T16:13:28.007Z,9.90
2019-04-05T16:15:56.817Z,9.80
2019-04-05T16:18:27.071Z,9.80
2019-04-05T16:20:55.699Z,9.70
2019-04-05T16:23:24.398Z,9.60
2019-04-05T16:25:53.068Z,9.50
2019-04-05T16:28:21.688Z,9.50
2019-04-05T16:30:50.321Z,9.50
2019-04-05T16:33:19.010Z,9.50
2019-04-05T16:35:47.589Z,9.50
2019-04-05T16:38:16.203Z,9.40
2019-04-05T16:40:44.855Z,9.30
2019-04-05T16:43:13.398Z,9.30
2019-04-05T16:45:42.148Z,9.30
2019-04-05T16:48:10.638Z,9.30
2019-04-05T16:50:42.061Z,9.30
2019-04-05T16:53:09.430Z,9.40
2019-04-05T16:55:38.156Z,9.50
2019-04-05T16:58:07.677Z,9.50
2019-04-05T17:00:36.364Z,9.40
2019-04-05T17:03:04.924Z,9.30
2019-04-05T17:05:33.565Z,9.30
2019-04-05T17:08:02.853Z,9.30
2019-04-05T17:10:31.418Z,9.20
2019-04-05T17:13:00.129Z,9.20
2019-04-05T17:15:28.793Z,9.20
2019-04-05T17:17:57.474Z,9.10
2019-04-05T17:20:26.110Z,9.20
2019-04-05T17:22:58.505Z,9.10
2019-04-05T17:25:25.057Z,9.10
2019-04-05T17:27:54.097Z,9.10
2019-04-05T17:30:22.652Z,9.10
2019-04-05T17:32:51.288Z,9.10
2019-04-05T17:35:20.791Z,9.00
2019-04-05T17:37:49.432Z,9.10
2019-04-05T17:40:18.109Z,9.20
2019-04-05T17:42:46.839Z,9.10
2019-04-05T17:45:15.435Z,9.10
2019-04-05T17:47:44.067Z,9.10
2019-04-05T17:50:14.513Z,9.10
2019-04-05T17:52:43.149Z,9.00
2019-04-05T17:55:11.817Z,9.00
2019-04-05T17:57:40.449Z,9.00
2019-04-05T18:00:11.257Z,9.00
2019-04-05T18:02:40.043Z,9.00
2019-04-05T18:05:08.661Z,8.90
2019-04-05T18:07:37.317Z,8.90
2019-04-05T18:10:06.475Z,8.90
2019-04-05T18:12:35.065Z,8.80
2019-04-05T18:15:03.897Z,8.80
2019-04-05T18:17:32.539Z,8.90
2019-04-05T18:20:01.052Z,8.80
2019-04-05T18:22:29.727Z,8.70
2019-04-05T18:24:58.337Z,8.70
2019-04-05T18:27:26.892Z,8.70
2019-04-05T18:29:55.495Z,8.70
2019-04-05T18:32:24.116Z,8.70
2019-04-05T18:34:52.854Z,8.70
2019-04-05T18:37:21.394Z,8.60
2019-04-05T18:39:50.158Z,8.60
2019-04-05T18:42:18.713Z,8.60
2019-04-05T18:44:47.373Z,8.60
2019-04-05T18:47:15.995Z,8.60
2019-04-05T18:49:45.477Z,8.60
2019-04-05T18:52:14.077Z,8.60
2019-04-05T18:54:42.785Z,8.60
2019-04-05T18:57:14.009Z,8.60
2019-04-05T18:59:41.774Z,8.50
2019-04-05T19:02:11.357Z,8.50
2019-04-05T19:04:40.176Z,8.50
2019-04-05T19:07:08.804Z,8.50
2019-04-05T19:09:37.371Z,8.50
2019-04-05T19:12:06.061Z,8.40
2019-04-05T19:14:34.659Z,8.40
2019-04-05T19:17:03.272Z,8.40
2019-04-05T19:19:31.823Z,8.40
2019-04-05T19:22:00.510Z,8.40
2019-04-05T19:24:29.184Z,8.40
2019-04-05T19:26:57.910Z,8.50
2019-04-05T19:29:26.601Z,8.40
2019-04-05T19:49:27.138Z,8.30
2019-04-05T19:51:55.729Z,8.20
2019-04-05T19:54:26.419Z,8.20
2019-04-05T19:56:54.601Z,8.30
2019-04-05T19:59:23.103Z,8.20
2019-04-05T20:01:51.780Z,8.20
2019-04-05T20:04:20.355Z,8.20
2019-04-05T20:06:58.061Z,8.20
2019-04-05T20:09:21.005Z,8.10
2019-04-05T20:11:49.679Z,8.10
2019-04-05T20:14:18.373Z,8.10
2019-04-05T20:16:46.895Z,8.10
2019-04-05T20:19:15.597Z,8.00
2019-04-05T20:21:44.067Z,8.00
2019-04-05T20:24:14.350Z,8.00
2019-04-05T20:26:42.841Z,8.00
2019-04-05T20:29:11.445Z,8.00
2019-04-05T20:31:39.989Z,8.00
2019-04-05T20:34:08.564Z,7.90
2019-04-05T20:36:37.118Z,7.90
2019-04-05T20:39:07.696Z,7.90
2019-04-05T20:41:36.320Z,7.90
2019-04-05T20:44:05.015Z,7.90
2019-04-05T20:46:33.585Z,7.90
2019-04-05T20:49:02.311Z,7.90
2019-04-05T20:51:30.916Z,7.90
2019-04-05T20:53:59.450Z,7.90
2019-04-05T20:56:28.191Z,7.90
2019-04-05T20:58:56.654Z,7.90
2019-04-05T21:01:25.240Z,7.90
2019-04-05T21:03:53.831Z,7.90
2019-04-05T21:06:22.342Z,8.00
2019-04-05T21:08:50.893Z,7.90
2019-04-05T21:11:19.376Z,7.90
2019-04-05T21:13:47.918Z,7.90
2019-04-05T21:16:16.621Z,7.90
2019-04-05T21:18:45.221Z,7.90
2019-04-05T21:21:13.801Z,7.90
2019-04-05T21:23:42.263Z,7.90
2019-04-05T21:26:10.901Z,7.90
2019-04-05T21:28:39.514Z,7.90
2019-04-05T21:31:08.139Z,7.90
2019-04-05T21:33:36.715Z,7.90
2019-04-05T21:36:05.375Z,7.90
2019-04-05T21:38:33.932Z,7.90
2019-04-05T21:41:02.475Z,8.00
2019-04-05T21:43:31.035Z,8.00
2019-04-05T21:45:59.677Z,8.00
2019-04-05T21:48:30.541Z,8.10
2019-04-05T21:50:58.548Z,8.10
2019-04-05T21:53:27.259Z,8.10
2019-04-05T21:55:55.823Z,8.10
2019-04-05T21:58:25.971Z,8.10
2019-04-05T22:01:02.802Z,8.10
2019-04-05T22:03:31.527Z,8.10
2019-04-05T22:06:00.065Z,8.10
2019-04-05T22:08:28.622Z,8.20
2019-04-05T22:10:57.218Z,8.20
2019-04-05T22:13:25.874Z,8.20
2019-04-05T22:15:54.409Z,8.20
2019-04-05T22:18:22.970Z,8.30
2019-04-05T22:20:51.516Z,8.30
2019-04-05T22:23:20.054Z,8.30
2019-04-05T22:25:48.681Z,8.30
2019-04-05T22:28:17.159Z,8.30
2019-04-05T22:30:45.842Z,8.30
2019-04-05T22:33:14.414Z,8.30
2019-04-05T22:35:42.977Z,8.30
2019-04-05T22:38:11.509Z,8.20
2019-04-05T22:40:40.148Z,8.30
2019-04-05T22:43:08.685Z,8.20
2019-04-05T22:45:37.322Z,8.20
2019-04-05T22:48:05.855Z,8.20
2019-04-05T22:50:34.513Z,8.20
2019-04-05T22:53:05.643Z,8.30
2019-04-05T22:55:34.815Z,8.40
2019-04-05T22:58:03.357Z,8.30
2019-04-05T23:00:31.930Z,8.40
2019-04-05T23:03:00.463Z,8.30
2019-04-05T23:05:29.123Z,8.20
2019-04-05T23:07:57.693Z,8.20
2019-04-05T23:10:26.273Z,8.10
2019-04-05T23:12:54.821Z,8.10
2019-04-05T23:15:23.450Z,8.00
2019-04-05T23:17:51.926Z,8.10
2019-04-05T23:20:20.477Z,8.00
2019-04-05T23:22:49.049Z,8.00
2019-04-05T23:25:22.069Z,7.90
2019-04-05T23:27:47.835Z,7.90
2019-04-05T23:30:17.130Z,8.00
2019-04-05T23:32:45.684Z,8.20
2019-04-05T23:35:14.380Z,8.20
2019-04-05T23:37:42.903Z,8.30
2019-04-05T23:40:11.903Z,8.20
2019-04-05T23:42:40.464Z,8.20
2019-04-05T23:45:10.719Z,8.20
2019-04-05T23:47:39.262Z,8.20
2019-04-05T23:50:07.994Z,8.20
2019-04-05T23:52:36.542Z,8.30
2019-04-05T23:55:06.445Z,8.30
2019-04-05T23:57:35.114Z,8.30
